sensor_id;sensor_type;location;lat;lon;timestamp;P1;durP1;ratioP1;P2;durP2;ratioP2
25497;SDS011;13406;53.380;7.226;2023-06-01T00:01:26;8.87;;;4.60;;
25497;SDS011;13406;53.380;7.226;2023-06-01T00:03:52;9.87;;;4.60;;
25497;SDS011;13406;53.380;7.226;2023-06-01T00:06:17;13.53;;;4.13;;
25497;SDS011;13406;53.380;7.226;2023-06-01T00:08:43;9.07;;;4.20;;
25497;SDS011;13406;53.380;7.226;2023-06-01T00:11:11;7.70;;;3.70;;
25497;SDS011;13406;53.380;7.226;2023-06-01T00:13:37;8.40;;;3.80;;
25497;SDS011;13406;53.380;7.226;2023-06-01T00:16:02;5.63;;;3.37;;
25497;SDS011;13406;53.380;7.226;2023-06-01T00:18:28;9.67;;;3.60;;
25497;SDS011;13406;53.380;7.226;2023-06-01T00:20:53;6.57;;;4.07;;
25497;SDS011;13406;53.380;7.226;2023-06-01T00:23:19;10.70;;;3.37;;
25497;SDS011;13406;53.380;7.226;2023-06-01T00:25:45;12.33;;;3.90;;
25497;SDS011;13406;53.380;7.226;2023-06-01T00:28:10;8.47;;;3.80;;
25497;SDS011;13406;53.380;7.226;2023-06-01T00:30:36;12.00;;;4.20;;
25497;SDS011;13406;53.380;7.226;2023-06-01T00:33:01;8.40;;;3.93;;
25497;SDS011;13406;53.380;7.226;2023-06-01T00:35:27;10.43;;;3.97;;
25497;SDS011;13406;53.380;7.226;2023-06-01T00:37:52;7.23;;;3.33;;
25497;SDS011;13406;53.380;7.226;2023-06-01T00:40:18;7.27;;;3.43;;
25497;SDS011;13406;53.380;7.226;2023-06-01T00:42:43;9.50;;;2.90;;
25497;SDS011;13406;53.380;7.226;2023-06-01T00:45:09;6.63;;;3.30;;
25497;SDS011;13406;53.380;7.226;2023-06-01T00:47:38;6.40;;;3.00;;
25497;SDS011;13406;53.380;7.226;2023-06-01T00:50:06;7.03;;;3.50;;
25497;SDS011;13406;53.380;7.226;2023-06-01T00:52:32;6.17;;;3.10;;
25497;SDS011;13406;53.380;7.226;2023-06-01T00:54:58;6.40;;;3.33;;
25497;SDS011;13406;53.380;7.226;2023-06-01T00:57:23;6.93;;;3.27;;
25497;SDS011;13406;53.380;7.226;2023-06-01T00:59:51;8.00;;;2.40;;
25497;SDS011;13406;53.380;7.226;2023-06-01T01:02:18;7.20;;;3.40;;
25497;SDS011;13406;53.380;7.226;2023-06-01T01:04:43;5.17;;;2.50;;
25497;SDS011;13406;53.380;7.226;2023-06-01T01:07:17;7.00;;;2.90;;
25497;SDS011;13406;53.380;7.226;2023-06-01T01:09:58;11.87;;;3.17;;
25497;SDS011;13406;53.380;7.226;2023-06-01T01:12:36;6.40;;;2.63;;
25497;SDS011;13406;53.380;7.226;2023-06-01T01:15:24;5.90;;;2.73;;
25497;SDS011;13406;53.380;7.226;2023-06-01T01:17:54;7.70;;;3.23;;
25497;SDS011;13406;53.380;7.226;2023-06-01T01:20:28;5.87;;;2.70;;
25497;SDS011;13406;53.380;7.226;2023-06-01T01:23:05;6.73;;;2.50;;
25497;SDS011;13406;53.380;7.226;2023-06-01T01:31:15;6.33;;;2.93;;
25497;SDS011;13406;53.380;7.226;2023-06-01T01:33:43;6.40;;;2.30;;
25497;SDS011;13406;53.380;7.226;2023-06-01T01:36:10;3.40;;;2.03;;
25497;SDS011;13406;53.380;7.226;2023-06-01T01:38:36;4.50;;;2.60;;
25497;SDS011;13406;53.380;7.226;2023-06-01T01:41:02;4.60;;;2.30;;
25497;SDS011;13406;53.380;7.226;2023-06-01T01:43:29;5.37;;;2.40;;
25497;SDS011;13406;53.380;7.226;2023-06-01T01:46:41;8.73;;;2.47;;
25497;SDS011;13406;53.380;7.226;2023-06-01T01:48:58;7.10;;;2.53;;
25497;SDS011;13406;53.380;7.226;2023-06-01T01:51:42;7.73;;;1.83;;
25497;SDS011;13406;53.380;7.226;2023-06-01T01:54:14;6.60;;;2.77;;
25497;SDS011;13406;53.380;7.226;2023-06-01T01:56:42;5.07;;;2.73;;
25497;SDS011;13406;53.380;7.226;2023-06-01T01:59:09;6.23;;;2.67;;
25497;SDS011;13406;53.380;7.226;2023-06-01T02:01:35;4.53;;;2.33;;
25497;SDS011;13406;53.380;7.226;2023-06-01T02:04:04;5.90;;;2.90;;
25497;SDS011;13406;53.380;7.226;2023-06-01T02:06:32;4.23;;;2.87;;
25497;SDS011;13406;53.380;7.226;2023-06-01T02:08:58;9.40;;;3.20;;
25497;SDS011;13406;53.380;7.226;2023-06-01T02:11:24;9.70;;;2.83;;
25497;SDS011;13406;53.380;7.226;2023-06-01T02:13:49;7.03;;;3.10;;
25497;SDS011;13406;53.380;7.226;2023-06-01T02:16:15;9.93;;;3.07;;
25497;SDS011;13406;53.380;7.226;2023-06-01T02:18:45;7.97;;;3.30;;
25497;SDS011;13406;53.380;7.226;2023-06-01T02:21:14;8.07;;;4.07;;
25497;SDS011;13406;53.380;7.226;2023-06-01T02:23:40;8.73;;;3.97;;
25497;SDS011;13406;53.380;7.226;2023-06-01T02:26:07;6.80;;;4.00;;
25497;SDS011;13406;53.380;7.226;2023-06-01T02:28:36;11.03;;;4.30;;
25497;SDS011;13406;53.380;7.226;2023-06-01T02:31:03;6.60;;;3.73;;
25497;SDS011;13406;53.380;7.226;2023-06-01T02:33:30;6.50;;;3.20;;
25497;SDS011;13406;53.380;7.226;2023-06-01T02:35:55;7.53;;;3.50;;
25497;SDS011;13406;53.380;7.226;2023-06-01T02:38:20;5.17;;;3.37;;
25497;SDS011;13406;53.380;7.226;2023-06-01T02:40:46;7.77;;;3.23;;
25497;SDS011;13406;53.380;7.226;2023-06-01T02:43:11;9.60;;;3.40;;
25497;SDS011;13406;53.380;7.226;2023-06-01T02:45:37;6.33;;;3.53;;
25497;SDS011;13406;53.380;7.226;2023-06-01T02:48:03;9.90;;;3.97;;
25497;SDS011;13406;53.380;7.226;2023-06-01T02:50:29;8.20;;;3.57;;
25497;SDS011;13406;53.380;7.226;2023-06-01T02:52:54;5.50;;;3.50;;
25497;SDS011;13406;53.380;7.226;2023-06-01T02:55:20;14.30;;;4.57;;
25497;SDS011;13406;53.380;7.226;2023-06-01T02:57:46;9.03;;;3.40;;
25497;SDS011;13406;53.380;7.226;2023-06-01T03:00:11;5.47;;;3.43;;
25497;SDS011;13406;53.380;7.226;2023-06-01T03:02:47;6.70;;;3.43;;
25497;SDS011;13406;53.380;7.226;2023-06-01T03:05:12;5.33;;;3.10;;
25497;SDS011;13406;53.380;7.226;2023-06-01T03:07:42;6.07;;;2.97;;
25497;SDS011;13406;53.380;7.226;2023-06-01T03:10:11;7.13;;;3.07;;
25497;SDS011;13406;53.380;7.226;2023-06-01T03:12:37;6.40;;;3.20;;
25497;SDS011;13406;53.380;7.226;2023-06-01T03:15:03;9.37;;;3.80;;
25497;SDS011;13406;53.380;7.226;2023-06-01T03:17:30;6.67;;;3.00;;
25497;SDS011;13406;53.380;7.226;2023-06-01T03:19:56;11.80;;;3.57;;
25497;SDS011;13406;53.380;7.226;2023-06-01T03:22:22;5.07;;;3.00;;
25497;SDS011;13406;53.380;7.226;2023-06-01T03:24:47;6.63;;;3.20;;
25497;SDS011;13406;53.380;7.226;2023-06-01T03:27:15;7.70;;;2.73;;
25497;SDS011;13406;53.380;7.226;2023-06-01T03:29:44;6.60;;;3.20;;
25497;SDS011;13406;53.380;7.226;2023-06-01T03:32:10;7.20;;;2.60;;
25497;SDS011;13406;53.380;7.226;2023-06-01T03:34:36;5.10;;;2.07;;
25497;SDS011;13406;53.380;7.226;2023-06-01T03:37:04;5.30;;;2.30;;
25497;SDS011;13406;53.380;7.226;2023-06-01T03:39:31;5.67;;;2.40;;
25497;SDS011;13406;53.380;7.226;2023-06-01T03:42:00;5.73;;;2.30;;
25497;SDS011;13406;53.380;7.226;2023-06-01T03:44:26;6.87;;;2.90;;
25497;SDS011;13406;53.380;7.226;2023-06-01T03:46:51;5.60;;;2.33;;
25497;SDS011;13406;53.380;7.226;2023-06-01T03:49:17;6.27;;;2.60;;
25497;SDS011;13406;53.380;7.226;2023-06-01T03:51:43;6.93;;;2.33;;
25497;SDS011;13406;53.380;7.226;2023-06-01T03:54:09;6.00;;;2.80;;
25497;SDS011;13406;53.380;7.226;2023-06-01T03:56:34;4.77;;;2.93;;
25497;SDS011;13406;53.380;7.226;2023-06-01T03:59:00;5.33;;;2.53;;
25497;SDS011;13406;53.380;7.226;2023-06-01T04:01:26;8.70;;;3.33;;
25497;SDS011;13406;53.380;7.226;2023-06-01T04:03:57;4.83;;;2.60;;
25497;SDS011;13406;53.380;7.226;2023-06-01T04:06:23;3.47;;;2.20;;
25497;SDS011;13406;53.380;7.226;2023-06-01T04:08:49;5.57;;;2.63;;
25497;SDS011;13406;53.380;7.226;2023-06-01T04:11:20;4.63;;;2.60;;
25497;SDS011;13406;53.380;7.226;2023-06-01T04:13:50;6.57;;;2.87;;
25497;SDS011;13406;53.380;7.226;2023-06-01T04:16:15;5.27;;;2.43;;
25497;SDS011;13406;53.380;7.226;2023-06-01T04:18:41;5.37;;;3.23;;
25497;SDS011;13406;53.380;7.226;2023-06-01T04:21:07;5.93;;;2.40;;
25497;SDS011;13406;53.380;7.226;2023-06-01T04:23:34;6.03;;;2.67;;
25497;SDS011;13406;53.380;7.226;2023-06-01T04:25:59;6.30;;;2.50;;
25497;SDS011;13406;53.380;7.226;2023-06-01T04:28:28;7.57;;;2.37;;
25497;SDS011;13406;53.380;7.226;2023-06-01T04:30:55;5.77;;;2.50;;
25497;SDS011;13406;53.380;7.226;2023-06-01T04:33:21;3.00;;;1.80;;
25497;SDS011;13406;53.380;7.226;2023-06-01T04:35:50;3.57;;;1.97;;
25497;SDS011;13406;53.380;7.226;2023-06-01T04:38:18;5.43;;;2.00;;
25497;SDS011;13406;53.380;7.226;2023-06-01T04:40:44;4.53;;;2.30;;
25497;SDS011;13406;53.380;7.226;2023-06-01T04:43:12;5.00;;;2.57;;
25497;SDS011;13406;53.380;7.226;2023-06-01T04:45:38;2.83;;;1.93;;
25497;SDS011;13406;53.380;7.226;2023-06-01T04:48:04;5.80;;;2.00;;
25497;SDS011;13406;53.380;7.226;2023-06-01T04:50:33;2.97;;;1.73;;
25497;SDS011;13406;53.380;7.226;2023-06-01T04:53:00;1.90;;;1.67;;
25497;SDS011;13406;53.380;7.226;2023-06-01T04:55:26;3.50;;;1.97;;
25497;SDS011;13406;53.380;7.226;2023-06-01T04:57:51;7.83;;;2.27;;
25497;SDS011;13406;53.380;7.226;2023-06-01T05:00:17;7.10;;;2.67;;
25497;SDS011;13406;53.380;7.226;2023-06-01T05:02:43;4.17;;;2.20;;
25497;SDS011;13406;53.380;7.226;2023-06-01T05:05:11;3.30;;;1.93;;
25497;SDS011;13406;53.380;7.226;2023-06-01T05:07:38;3.00;;;1.60;;
25497;SDS011;13406;53.380;7.226;2023-06-01T05:10:07;3.93;;;2.30;;
25497;SDS011;13406;53.380;7.226;2023-06-01T05:12:35;3.70;;;1.87;;
25497;SDS011;13406;53.380;7.226;2023-06-01T05:15:02;2.50;;;1.87;;
25497;SDS011;13406;53.380;7.226;2023-06-01T05:17:29;2.77;;;1.63;;
25497;SDS011;13406;53.380;7.226;2023-06-01T05:19:55;4.63;;;2.00;;
25497;SDS011;13406;53.380;7.226;2023-06-01T05:22:22;4.57;;;2.40;;
25497;SDS011;13406;53.380;7.226;2023-06-01T05:24:48;3.30;;;2.20;;
25497;SDS011;13406;53.380;7.226;2023-06-01T05:27:13;2.87;;;1.83;;
25497;SDS011;13406;53.380;7.226;2023-06-01T05:29:39;4.30;;;2.17;;
25497;SDS011;13406;53.380;7.226;2023-06-01T05:32:04;3.73;;;2.60;;
25497;SDS011;13406;53.380;7.226;2023-06-01T05:34:30;3.23;;;1.90;;
25497;SDS011;13406;53.380;7.226;2023-06-01T05:36:56;4.80;;;2.20;;
25497;SDS011;13406;53.380;7.226;2023-06-01T05:39:21;5.00;;;1.93;;
25497;SDS011;13406;53.380;7.226;2023-06-01T05:41:52;2.67;;;1.70;;
25497;SDS011;13406;53.380;7.226;2023-06-01T05:44:18;4.93;;;2.00;;
25497;SDS011;13406;53.380;7.226;2023-06-01T05:46:44;4.57;;;1.70;;
25497;SDS011;13406;53.380;7.226;2023-06-01T05:49:09;3.10;;;1.60;;
25497;SDS011;13406;53.380;7.226;2023-06-01T05:51:34;3.43;;;1.63;;
25497;SDS011;13406;53.380;7.226;2023-06-01T05:54:03;5.87;;;1.97;;
25497;SDS011;13406;53.380;7.226;2023-06-01T05:56:29;4.40;;;2.10;;
25497;SDS011;13406;53.380;7.226;2023-06-01T05:58:55;2.70;;;1.30;;
25497;SDS011;13406;53.380;7.226;2023-06-01T06:01:21;2.60;;;1.43;;
25497;SDS011;13406;53.380;7.226;2023-06-01T06:03:47;4.27;;;1.80;;
25497;SDS011;13406;53.380;7.226;2023-06-01T06:06:12;3.10;;;1.23;;
25497;SDS011;13406;53.380;7.226;2023-06-01T06:08:38;3.00;;;1.50;;
25497;SDS011;13406;53.380;7.226;2023-06-01T06:11:03;3.50;;;1.50;;
25497;SDS011;13406;53.380;7.226;2023-06-01T06:13:29;2.50;;;1.47;;
25497;SDS011;13406;53.380;7.226;2023-06-01T06:15:54;3.33;;;1.47;;
25497;SDS011;13406;53.380;7.226;2023-06-01T06:18:21;1.90;;;1.40;;
25497;SDS011;13406;53.380;7.226;2023-06-01T06:20:46;2.27;;;1.50;;
25497;SDS011;13406;53.380;7.226;2023-06-01T06:23:12;2.97;;;1.40;;
25497;SDS011;13406;53.380;7.226;2023-06-01T06:25:38;5.30;;;1.50;;
25497;SDS011;13406;53.380;7.226;2023-06-01T06:28:05;4.07;;;1.40;;
25497;SDS011;13406;53.380;7.226;2023-06-01T06:30:30;4.07;;;1.60;;
25497;SDS011;13406;53.380;7.226;2023-06-01T06:32:56;4.33;;;2.10;;
25497;SDS011;13406;53.380;7.226;2023-06-01T06:35:21;5.27;;;1.50;;
25497;SDS011;13406;53.380;7.226;2023-06-01T06:37:47;3.10;;;1.63;;
25497;SDS011;13406;53.380;7.226;2023-06-01T06:40:12;3.30;;;1.50;;
25497;SDS011;13406;53.380;7.226;2023-06-01T06:42:38;4.50;;;1.70;;
25497;SDS011;13406;53.380;7.226;2023-06-01T06:45:03;4.20;;;1.67;;
25497;SDS011;13406;53.380;7.226;2023-06-01T06:47:30;4.13;;;1.97;;
25497;SDS011;13406;53.380;7.226;2023-06-01T06:49:56;3.40;;;1.70;;
25497;SDS011;13406;53.380;7.226;2023-06-01T06:52:22;2.73;;;1.60;;
25497;SDS011;13406;53.380;7.226;2023-06-01T06:54:47;2.07;;;1.40;;
25497;SDS011;13406;53.380;7.226;2023-06-01T06:57:12;4.20;;;1.57;;
25497;SDS011;13406;53.380;7.226;2023-06-01T06:59:38;3.07;;;2.23;;
25497;SDS011;13406;53.380;7.226;2023-06-01T07:02:03;2.30;;;1.47;;
25497;SDS011;13406;53.380;7.226;2023-06-01T07:04:29;4.97;;;1.90;;
25497;SDS011;13406;53.380;7.226;2023-06-01T07:06:55;3.50;;;2.10;;
25497;SDS011;13406;53.380;7.226;2023-06-01T07:09:21;2.20;;;1.60;;
25497;SDS011;13406;53.380;7.226;2023-06-01T07:11:46;4.93;;;2.10;;
25497;SDS011;13406;53.380;7.226;2023-06-01T07:14:13;3.60;;;1.60;;
25497;SDS011;13406;53.380;7.226;2023-06-01T07:16:38;3.37;;;1.70;;
25497;SDS011;13406;53.380;7.226;2023-06-01T07:19:04;4.73;;;1.90;;
25497;SDS011;13406;53.380;7.226;2023-06-01T07:21:30;5.07;;;2.03;;
25497;SDS011;13406;53.380;7.226;2023-06-01T07:23:55;6.73;;;2.37;;
25497;SDS011;13406;53.380;7.226;2023-06-01T07:26:21;4.93;;;2.40;;
25497;SDS011;13406;53.380;7.226;2023-06-01T07:28:50;8.57;;;2.60;;
25497;SDS011;13406;53.380;7.226;2023-06-01T07:31:18;6.33;;;2.73;;
25497;SDS011;13406;53.380;7.226;2023-06-01T07:33:43;5.13;;;2.70;;
25497;SDS011;13406;53.380;7.226;2023-06-01T07:36:09;8.20;;;3.50;;
25497;SDS011;13406;53.380;7.226;2023-06-01T07:38:35;7.13;;;2.60;;
25497;SDS011;13406;53.380;7.226;2023-06-01T07:41:00;7.80;;;2.47;;
25497;SDS011;13406;53.380;7.226;2023-06-01T07:43:26;8.53;;;3.07;;
25497;SDS011;13406;53.380;7.226;2023-06-01T07:45:52;4.13;;;2.00;;
25497;SDS011;13406;53.380;7.226;2023-06-01T07:48:17;9.03;;;2.83;;
25497;SDS011;13406;53.380;7.226;2023-06-01T07:50:43;5.50;;;2.77;;
25497;SDS011;13406;53.380;7.226;2023-06-01T07:53:08;8.67;;;2.90;;
25497;SDS011;13406;53.380;7.226;2023-06-01T07:55:34;4.23;;;2.37;;
25497;SDS011;13406;53.380;7.226;2023-06-01T07:57:59;9.70;;;3.00;;
25497;SDS011;13406;53.380;7.226;2023-06-01T08:00:25;6.03;;;2.87;;
25497;SDS011;13406;53.380;7.226;2023-06-01T08:02:51;6.23;;;2.60;;
25497;SDS011;13406;53.380;7.226;2023-06-01T08:05:17;6.07;;;3.30;;
25497;SDS011;13406;53.380;7.226;2023-06-01T08:07:44;8.30;;;3.27;;
25497;SDS011;13406;53.380;7.226;2023-06-01T08:10:11;7.37;;;3.30;;
25497;SDS011;13406;53.380;7.226;2023-06-01T08:12:38;8.80;;;3.50;;
25497;SDS011;13406;53.380;7.226;2023-06-01T08:15:04;6.63;;;2.97;;
25497;SDS011;13406;53.380;7.226;2023-06-01T08:17:30;9.93;;;3.13;;
25497;SDS011;13406;53.380;7.226;2023-06-01T08:19:56;16.13;;;4.10;;
25497;SDS011;13406;53.380;7.226;2023-06-01T08:22:22;5.80;;;2.87;;
25497;SDS011;13406;53.380;7.226;2023-06-01T08:24:49;6.30;;;2.50;;
25497;SDS011;13406;53.380;7.226;2023-06-01T08:27:22;4.80;;;2.60;;
25497;SDS011;13406;53.380;7.226;2023-06-01T08:29:49;5.13;;;2.57;;
25497;SDS011;13406;53.380;7.226;2023-06-01T08:32:15;5.97;;;2.77;;
25497;SDS011;13406;53.380;7.226;2023-06-01T08:34:45;9.83;;;3.07;;
25497;SDS011;13406;53.380;7.226;2023-06-01T08:37:12;7.43;;;2.80;;
25497;SDS011;13406;53.380;7.226;2023-06-01T08:39:38;8.47;;;2.97;;
25497;SDS011;13406;53.380;7.226;2023-06-01T08:44:37;8.20;;;2.40;;
25497;SDS011;13406;53.380;7.226;2023-06-01T08:47:04;10.13;;;2.70;;
25497;SDS011;13406;53.380;7.226;2023-06-01T08:49:31;9.90;;;3.20;;
25497;SDS011;13406;53.380;7.226;2023-06-01T08:51:59;11.13;;;2.93;;
25497;SDS011;13406;53.380;7.226;2023-06-01T08:54:27;6.17;;;2.60;;
25497;SDS011;13406;53.380;7.226;2023-06-01T08:56:57;7.87;;;2.20;;
25497;SDS011;13406;53.380;7.226;2023-06-01T08:59:24;6.23;;;2.53;;
25497;SDS011;13406;53.380;7.226;2023-06-01T09:01:50;8.07;;;2.10;;
25497;SDS011;13406;53.380;7.226;2023-06-01T09:04:18;11.30;;;2.53;;
25497;SDS011;13406;53.380;7.226;2023-06-01T09:06:43;4.40;;;2.20;;
25497;SDS011;13406;53.380;7.226;2023-06-01T09:09:09;7.17;;;2.40;;
25497;SDS011;13406;53.380;7.226;2023-06-01T09:11:37;7.13;;;3.40;;
25497;SDS011;13406;53.380;7.226;2023-06-01T09:14:10;7.93;;;2.73;;
25497;SDS011;13406;53.380;7.226;2023-06-01T09:16:46;9.90;;;2.27;;
25497;SDS011;13406;53.380;7.226;2023-06-01T09:19:12;5.27;;;2.50;;
25497;SDS011;13406;53.380;7.226;2023-06-01T09:21:38;4.93;;;2.03;;
25497;SDS011;13406;53.380;7.226;2023-06-01T09:24:20;7.20;;;2.57;;
25497;SDS011;13406;53.380;7.226;2023-06-01T09:26:49;5.10;;;2.20;;
25497;SDS011;13406;53.380;7.226;2023-06-01T09:29:15;6.80;;;2.50;;
25497;SDS011;13406;53.380;7.226;2023-06-01T09:31:44;5.43;;;2.23;;
25497;SDS011;13406;53.380;7.226;2023-06-01T09:34:18;7.40;;;2.43;;
25497;SDS011;13406;53.380;7.226;2023-06-01T09:36:45;5.10;;;2.30;;
25497;SDS011;13406;53.380;7.226;2023-06-01T09:39:17;8.00;;;3.13;;
25497;SDS011;13406;53.380;7.226;2023-06-01T09:44:23;7.27;;;2.53;;
25497;SDS011;13406;53.380;7.226;2023-06-01T09:46:54;7.70;;;2.60;;
25497;SDS011;13406;53.380;7.226;2023-06-01T09:54:29;6.17;;;2.30;;
25497;SDS011;13406;53.380;7.226;2023-06-01T09:56:56;8.03;;;2.73;;
25497;SDS011;13406;53.380;7.226;2023-06-01T09:59:23;9.00;;;2.37;;
25497;SDS011;13406;53.380;7.226;2023-06-01T10:01:51;6.87;;;2.47;;
25497;SDS011;13406;53.380;7.226;2023-06-01T10:04:20;6.00;;;2.63;;
25497;SDS011;13406;53.380;7.226;2023-06-01T10:06:47;8.57;;;3.07;;
25497;SDS011;13406;53.380;7.226;2023-06-01T10:09:16;9.30;;;3.10;;
25497;SDS011;13406;53.380;7.226;2023-06-01T10:11:45;9.63;;;1.83;;
25497;SDS011;13406;53.380;7.226;2023-06-01T10:14:12;5.90;;;2.50;;
25497;SDS011;13406;53.380;7.226;2023-06-01T10:16:38;4.80;;;2.53;;
25497;SDS011;13406;53.380;7.226;2023-06-01T10:19:06;6.93;;;2.20;;
25497;SDS011;13406;53.380;7.226;2023-06-01T10:21:33;4.40;;;1.93;;
25497;SDS011;13406;53.380;7.226;2023-06-01T10:23:58;7.27;;;2.30;;
25497;SDS011;13406;53.380;7.226;2023-06-01T10:26:24;6.23;;;2.57;;
25497;SDS011;13406;53.380;7.226;2023-06-01T10:28:52;5.20;;;2.07;;
25497;SDS011;13406;53.380;7.226;2023-06-01T10:34:08;5.80;;;1.80;;
25497;SDS011;13406;53.380;7.226;2023-06-01T10:39:22;5.23;;;2.50;;
25497;SDS011;13406;53.380;7.226;2023-06-01T10:41:58;8.20;;;2.20;;
25497;SDS011;13406;53.380;7.226;2023-06-01T10:44:44;6.47;;;2.20;;
25497;SDS011;13406;53.380;7.226;2023-06-01T10:57:32;4.13;;;2.33;;
25497;SDS011;13406;53.380;7.226;2023-06-01T11:00:17;4.80;;;2.13;;
25497;SDS011;13406;53.380;7.226;2023-06-01T11:10:55;8.47;;;2.67;;
25497;SDS011;13406;53.380;7.226;2023-06-01T11:23:51;6.30;;;2.17;;
25497;SDS011;13406;53.380;7.226;2023-06-01T11:26:19;8.07;;;2.83;;
25497;SDS011;13406;53.380;7.226;2023-06-01T11:28:46;6.13;;;2.90;;
25497;SDS011;13406;53.380;7.226;2023-06-01T11:31:14;7.10;;;2.53;;
25497;SDS011;13406;53.380;7.226;2023-06-01T11:33:41;6.90;;;2.73;;
25497;SDS011;13406;53.380;7.226;2023-06-01T11:36:18;9.33;;;3.20;;
25497;SDS011;13406;53.380;7.226;2023-06-01T11:38:50;9.40;;;2.67;;
25497;SDS011;13406;53.380;7.226;2023-06-01T11:41:16;6.40;;;2.60;;
25497;SDS011;13406;53.380;7.226;2023-06-01T11:43:41;10.97;;;2.70;;
25497;SDS011;13406;53.380;7.226;2023-06-01T11:46:07;6.40;;;2.80;;
25497;SDS011;13406;53.380;7.226;2023-06-01T11:48:36;4.63;;;2.03;;
25497;SDS011;13406;53.380;7.226;2023-06-01T11:51:02;8.87;;;2.67;;
25497;SDS011;13406;53.380;7.226;2023-06-01T11:53:30;8.50;;;2.90;;
25497;SDS011;13406;53.380;7.226;2023-06-01T11:55:57;9.17;;;2.47;;
25497;SDS011;13406;53.380;7.226;2023-06-01T11:58:24;19.23;;;2.53;;
25497;SDS011;13406;53.380;7.226;2023-06-01T12:00:50;6.87;;;2.20;;
25497;SDS011;13406;53.380;7.226;2023-06-01T12:03:19;5.80;;;2.30;;
25497;SDS011;13406;53.380;7.226;2023-06-01T12:05:45;6.23;;;2.20;;
25497;SDS011;13406;53.380;7.226;2023-06-01T12:08:13;9.27;;;2.47;;
25497;SDS011;13406;53.380;7.226;2023-06-01T12:10:41;6.13;;;2.40;;
25497;SDS011;13406;53.380;7.226;2023-06-01T12:13:09;5.50;;;2.00;;
25497;SDS011;13406;53.380;7.226;2023-06-01T12:15:36;6.67;;;2.47;;
25497;SDS011;13406;53.380;7.226;2023-06-01T12:18:02;4.47;;;2.03;;
25497;SDS011;13406;53.380;7.226;2023-06-01T12:20:32;5.90;;;2.40;;
25497;SDS011;13406;53.380;7.226;2023-06-01T12:23:23;7.10;;;2.73;;
25497;SDS011;13406;53.380;7.226;2023-06-01T12:28:24;9.63;;;3.10;;
25497;SDS011;13406;53.380;7.226;2023-06-01T12:31:12;5.97;;;2.20;;
25497;SDS011;13406;53.380;7.226;2023-06-01T12:33:38;5.00;;;2.07;;
25497;SDS011;13406;53.380;7.226;2023-06-01T12:36:04;6.20;;;2.47;;
25497;SDS011;13406;53.380;7.226;2023-06-01T12:38:37;6.60;;;1.83;;
25497;SDS011;13406;53.380;7.226;2023-06-01T12:41:27;4.67;;;2.17;;
25497;SDS011;13406;53.380;7.226;2023-06-01T12:43:54;6.70;;;2.23;;
25497;SDS011;13406;53.380;7.226;2023-06-01T12:46:23;6.90;;;1.73;;
25497;SDS011;13406;53.380;7.226;2023-06-01T12:48:50;4.83;;;1.70;;
25497;SDS011;13406;53.380;7.226;2023-06-01T12:51:18;4.83;;;1.90;;
25497;SDS011;13406;53.380;7.226;2023-06-01T12:53:45;8.50;;;2.53;;
25497;SDS011;13406;53.380;7.226;2023-06-01T12:56:11;6.40;;;2.10;;
25497;SDS011;13406;53.380;7.226;2023-06-01T12:58:37;7.70;;;2.00;;
25497;SDS011;13406;53.380;7.226;2023-06-01T13:01:04;6.27;;;2.33;;
25497;SDS011;13406;53.380;7.226;2023-06-01T13:03:30;6.40;;;2.13;;
25497;SDS011;13406;53.380;7.226;2023-06-01T13:05:55;7.80;;;2.27;;
25497;SDS011;13406;53.380;7.226;2023-06-01T13:08:21;4.13;;;1.43;;
25497;SDS011;13406;53.380;7.226;2023-06-01T13:10:47;4.47;;;2.13;;
25497;SDS011;13406;53.380;7.226;2023-06-01T13:13:14;5.30;;;1.70;;
25497;SDS011;13406;53.380;7.226;2023-06-01T13:15:39;14.00;;;2.23;;
25497;SDS011;13406;53.380;7.226;2023-06-01T13:18:06;10.50;;;2.60;;
25497;SDS011;13406;53.380;7.226;2023-06-01T13:20:31;5.17;;;1.97;;
25497;SDS011;13406;53.380;7.226;2023-06-01T13:22:57;7.50;;;1.50;;
25497;SDS011;13406;53.380;7.226;2023-06-01T13:25:22;5.73;;;1.80;;
25497;SDS011;13406;53.380;7.226;2023-06-01T13:27:48;3.67;;;1.63;;
25497;SDS011;13406;53.380;7.226;2023-06-01T13:30:14;4.63;;;1.50;;
25497;SDS011;13406;53.380;7.226;2023-06-01T13:32:39;4.53;;;1.60;;
25497;SDS011;13406;53.380;7.226;2023-06-01T13:35:05;3.53;;;1.17;;
25497;SDS011;13406;53.380;7.226;2023-06-01T13:37:31;8.10;;;1.80;;
25497;SDS011;13406;53.380;7.226;2023-06-01T13:39:57;6.33;;;1.50;;
25497;SDS011;13406;53.380;7.226;2023-06-01T13:42:22;5.40;;;1.70;;
25497;SDS011;13406;53.380;7.226;2023-06-01T13:44:47;5.00;;;1.53;;
25497;SDS011;13406;53.380;7.226;2023-06-01T13:47:13;4.40;;;1.37;;
25497;SDS011;13406;53.380;7.226;2023-06-01T13:49:42;5.73;;;1.70;;
25497;SDS011;13406;53.380;7.226;2023-06-01T13:52:08;3.90;;;1.40;;
25497;SDS011;13406;53.380;7.226;2023-06-01T13:54:34;6.67;;;1.60;;
25497;SDS011;13406;53.380;7.226;2023-06-01T13:56:59;4.33;;;1.30;;
25497;SDS011;13406;53.380;7.226;2023-06-01T13:59:27;4.33;;;1.43;;
25497;SDS011;13406;53.380;7.226;2023-06-01T14:01:55;5.67;;;1.50;;
25497;SDS011;13406;53.380;7.226;2023-06-01T14:04:21;3.00;;;1.20;;
25497;SDS011;13406;53.380;7.226;2023-06-01T14:06:46;3.57;;;1.40;;
25497;SDS011;13406;53.380;7.226;2023-06-01T14:09:15;5.13;;;1.37;;
25497;SDS011;13406;53.380;7.226;2023-06-01T14:11:41;2.50;;;0.93;;
25497;SDS011;13406;53.380;7.226;2023-06-01T14:14:06;2.47;;;1.13;;
25497;SDS011;13406;53.380;7.226;2023-06-01T14:16:32;3.43;;;1.20;;
25497;SDS011;13406;53.380;7.226;2023-06-01T14:18:58;4.70;;;1.50;;
25497;SDS011;13406;53.380;7.226;2023-06-01T14:21:23;5.60;;;1.40;;
25497;SDS011;13406;53.380;7.226;2023-06-01T14:23:49;2.93;;;1.07;;
25497;SDS011;13406;53.380;7.226;2023-06-01T14:26:14;4.80;;;1.30;;
25497;SDS011;13406;53.380;7.226;2023-06-01T14:28:40;3.50;;;1.30;;
25497;SDS011;13406;53.380;7.226;2023-06-01T14:31:05;9.17;;;1.53;;
25497;SDS011;13406;53.380;7.226;2023-06-01T14:33:31;5.53;;;1.47;;
25497;SDS011;13406;53.380;7.226;2023-06-01T14:35:56;2.97;;;1.10;;
25497;SDS011;13406;53.380;7.226;2023-06-01T14:38:21;3.50;;;1.40;;
25497;SDS011;13406;53.380;7.226;2023-06-01T14:40:47;4.30;;;1.57;;
25497;SDS011;13406;53.380;7.226;2023-06-01T14:43:12;5.00;;;1.63;;
25497;SDS011;13406;53.380;7.226;2023-06-01T14:45:38;5.37;;;1.63;;
25497;SDS011;13406;53.380;7.226;2023-06-01T14:48:03;3.57;;;1.47;;
25497;SDS011;13406;53.380;7.226;2023-06-01T14:50:29;3.27;;;1.37;;
25497;SDS011;13406;53.380;7.226;2023-06-01T14:52:54;2.60;;;1.20;;
25497;SDS011;13406;53.380;7.226;2023-06-01T14:55:24;4.30;;;1.20;;
25497;SDS011;13406;53.380;7.226;2023-06-01T14:57:50;5.00;;;1.43;;
25497;SDS011;13406;53.380;7.226;2023-06-01T15:00:16;5.17;;;1.43;;
25497;SDS011;13406;53.380;7.226;2023-06-01T15:02:42;3.50;;;1.73;;
25497;SDS011;13406;53.380;7.226;2023-06-01T15:05:07;4.83;;;1.30;;
25497;SDS011;13406;53.380;7.226;2023-06-01T15:07:33;3.80;;;1.47;;
25497;SDS011;13406;53.380;7.226;2023-06-01T15:09:58;4.77;;;1.60;;
25497;SDS011;13406;53.380;7.226;2023-06-01T15:12:24;8.53;;;1.70;;
25497;SDS011;13406;53.380;7.226;2023-06-01T15:14:49;5.77;;;1.83;;
25497;SDS011;13406;53.380;7.226;2023-06-01T15:17:16;7.50;;;2.00;;
25497;SDS011;13406;53.380;7.226;2023-06-01T15:19:42;5.67;;;2.00;;
25497;SDS011;13406;53.380;7.226;2023-06-01T15:22:07;7.13;;;1.80;;
25497;SDS011;13406;53.380;7.226;2023-06-01T15:24:33;5.30;;;1.70;;
25497;SDS011;13406;53.380;7.226;2023-06-01T15:26:58;3.70;;;1.50;;
25497;SDS011;13406;53.380;7.226;2023-06-01T15:29:24;5.47;;;1.77;;
25497;SDS011;13406;53.380;7.226;2023-06-01T15:31:49;6.20;;;1.93;;
25497;SDS011;13406;53.380;7.226;2023-06-01T15:34:15;3.13;;;1.30;;
25497;SDS011;13406;53.380;7.226;2023-06-01T15:36:40;6.13;;;1.70;;
25497;SDS011;13406;53.380;7.226;2023-06-01T15:39:05;6.17;;;1.70;;
25497;SDS011;13406;53.380;7.226;2023-06-01T15:41:31;4.60;;;1.90;;